createdAt,value
2019-02-25T00:00:52.093Z,1029.98
2019-02-25T00:01:52.071Z,1030.01
2019-02-25T00:02:52.060Z,1029.99
2019-02-25T00:03:52.033Z,1030.01
2019-02-25T00:04:52.014Z,1030.01
2019-02-25T00:05:51.993Z,1029.97
2019-02-25T00:06:51.972Z,1029.98
2019-02-25T00:07:51.954Z,1029.96
2019-02-25T00:08:51.935Z,1029.94
2019-02-25T00:09:51.913Z,1029.94
2019-02-25T00:10:51.895Z,1029.97
2019-02-25T00:11:51.883Z,1029.92
2019-02-25T00:12:51.856Z,1029.9
2019-02-25T00:13:51.837Z,1029.96
2019-02-25T00:14:51.820Z,1029.93
2019-02-25T00:15:51.799Z,1029.92
2019-02-25T00:16:51.776Z,1029.89
2019-02-25T00:17:51.755Z,1029.88
2019-02-25T00:18:51.737Z,1029.85
2019-02-25T00:19:51.717Z,1029.86
2019-02-25T00:20:51.703Z,1029.81
2019-02-25T00:21:51.676Z,1029.8
2019-02-25T00:22:51.670Z,1029.79
2019-02-25T00:23:51.641Z,1029.77
2019-02-25T00:24:51.618Z,1029.75
2019-02-25T00:25:51.596Z,1029.74
2019-02-25T00:26:51.579Z,1029.74
2019-02-25T00:27:51.560Z,1029.69
2019-02-25T00:28:51.540Z,1029.69
2019-02-25T00:29:51.518Z,1029.73
2019-02-25T00:30:51.504Z,1029.68
2019-02-25T00:31:51.479Z,1029.68
2019-02-25T00:32:51.459Z,1029.66
2019-02-25T00:33:51.438Z,1029.63
2019-02-25T00:34:51.418Z,1029.65
2019-02-25T00:35:51.413Z,1029.6
2019-02-25T00:36:51.380Z,1029.61
2019-02-25T00:37:51.361Z,1029.6
2019-02-25T00:38:51.342Z,1029.59
2019-02-25T00:39:51.325Z,1029.59
2019-02-25T00:40:51.304Z,1029.56
2019-02-25T00:41:51.284Z,1029.61
2019-02-25T00:42:51.259Z,1029.59
2019-02-25T00:43:51.240Z,1029.6
2019-02-25T00:44:51.221Z,1029.59
2019-02-25T00:45:51.201Z,1029.53
2019-02-25T00:46:51.181Z,1029.56
2019-02-25T00:47:51.163Z,1029.52
2019-02-25T00:48:51.141Z,1029.52
2019-02-25T00:49:51.127Z,1029.54
2019-02-25T00:50:51.103Z,1029.52
2019-02-25T00:51:51.083Z,1029.56
2019-02-25T00:52:51.064Z,1029.53
2019-02-25T00:53:51.044Z,1029.51
2019-02-25T00:54:51.023Z,1029.5
2019-02-25T00:55:51.004Z,1029.47
2019-02-25T00:56:50.985Z,1029.45
2019-02-25T00:57:50.964Z,1029.45
2019-02-25T00:58:50.945Z,1029.45
2019-02-25T00:59:50.922Z,1029.37
2019-02-25T01:00:50.906Z,1029.39
2019-02-25T01:01:50.883Z,1029.39
2019-02-25T01:02:50.864Z,1029.39
2019-02-25T01:03:50.844Z,1029.4
2019-02-25T01:04:50.823Z,1029.39
2019-02-25T01:05:50.807Z,1029.4
2019-02-25T01:06:50.786Z,1029.43
2019-02-25T01:07:50.764Z,1029.4
2019-02-25T01:08:50.748Z,1029.45
2019-02-25T01:09:50.739Z,1029.36
2019-02-25T01:10:50.705Z,1029.37
2019-02-25T01:11:50.683Z,1029.34
2019-02-25T01:12:50.664Z,1029.33
2019-02-25T01:13:50.650Z,1029.31
2019-02-25T01:14:50.633Z,1029.35
2019-02-25T01:15:50.607Z,1029.36
2019-02-25T01:16:50.587Z,1029.34
2019-02-25T01:17:50.567Z,1029.36
2019-02-25T01:18:50.547Z,1029.38
2019-02-25T01:19:50.529Z,1029.37
2019-02-25T01:20:50.506Z,1029.42
2019-02-25T01:21:50.487Z,1029.4
2019-02-25T01:22:50.467Z,1029.38
2019-02-25T01:23:50.454Z,1029.39
2019-02-25T01:24:50.429Z,1029.39
2019-02-25T01:25:50.408Z,1029.39
2019-02-25T01:26:50.387Z,1029.37
2019-02-25T01:27:50.371Z,1029.42
2019-02-25T01:28:50.347Z,1029.41
2019-02-25T01:29:50.329Z,1029.44
2019-02-25T01:30:50.318Z,1029.45
2019-02-25T01:31:50.289Z,1029.44
2019-02-25T01:32:50.346Z,1029.46
2019-02-25T01:33:50.247Z,1029.44
2019-02-25T01:34:50.232Z,1029.48
2019-02-25T01:35:50.265Z,1029.51
2019-02-25T01:36:50.189Z,1029.48
2019-02-25T01:37:50.170Z,1029.52
2019-02-25T01:38:50.154Z,1029.54
2019-02-25T01:39:50.130Z,1029.59
2019-02-25T01:40:50.108Z,1029.55
2019-02-25T01:41:50.088Z,1029.59
2019-02-25T01:42:50.073Z,1029.61
2019-02-25T01:43:50.053Z,1029.59
2019-02-25T01:44:50.028Z,1029.58
2019-02-25T01:45:50.014Z,1029.56
2019-02-25T01:46:50.191Z,1029.55
2019-02-25T01:47:49.970Z,1029.54
2019-02-25T01:48:49.952Z,1029.56
2019-02-25T01:49:49.928Z,1029.56
2019-02-25T01:50:49.911Z,1029.55
2019-02-25T01:51:49.891Z,1029.53
2019-02-25T01:52:49.870Z,1029.51
2019-02-25T01:53:49.851Z,1029.53
2019-02-25T01:54:49.828Z,1029.5
2019-02-25T01:55:49.808Z,1029.54
2019-02-25T01:56:49.788Z,1029.5
2019-02-25T01:57:49.770Z,1029.46
2019-02-25T01:58:49.748Z,1029.48
2019-02-25T01:59:49.729Z,1029.46
2019-02-25T02:00:49.716Z,1029.44
2019-02-25T02:01:49.689Z,1029.38
2019-02-25T02:02:49.672Z,1029.39
2019-02-25T02:03:49.657Z,1029.33
2019-02-25T02:04:49.627Z,1029.34
2019-02-25T02:05:49.608Z,1029.35
2019-02-25T02:06:49.589Z,1029.37
2019-02-25T02:07:49.566Z,1029.39
2019-02-25T02:08:49.547Z,1029.42
2019-02-25T02:09:49.527Z,1029.42
2019-02-25T02:10:49.507Z,1029.41
2019-02-25T02:11:49.489Z,1029.38
2019-02-25T02:12:49.468Z,1029.42
2019-02-25T02:13:49.452Z,1029.36
2019-02-25T02:14:49.434Z,1029.35
2019-02-25T02:15:49.406Z,1029.33
2019-02-25T02:16:49.387Z,1029.34
2019-02-25T02:17:49.370Z,1029.29
2019-02-25T02:18:49.346Z,1029.34
2019-02-25T02:19:49.328Z,1029.28
2019-02-25T02:20:49.308Z,1029.24
2019-02-25T02:21:49.285Z,1029.25
2019-02-25T02:22:49.266Z,1029.29
2019-02-25T02:23:49.245Z,1029.23
2019-02-25T02:24:49.225Z,1029.19
2019-02-25T02:25:49.205Z,1029.19
2019-02-25T02:26:49.188Z,1029.17
2019-02-25T02:27:49.165Z,1029.16
2019-02-25T02:28:49.145Z,1029.17
2019-02-25T02:29:49.126Z,1029.17
2019-02-25T02:30:49.106Z,1029.16
2019-02-25T02:31:49.085Z,1029.17
2019-02-25T02:32:49.072Z,1029.15
2019-02-25T02:33:49.046Z,1029.15
2019-02-25T02:34:49.023Z,1029.15
2019-02-25T02:35:49.003Z,1029.19
2019-02-25T02:36:48.984Z,1029.21
2019-02-25T02:37:48.968Z,1029.19
2019-02-25T02:38:48.945Z,1029.19
2019-02-25T02:39:48.921Z,1029.21
2019-02-25T02:40:48.905Z,1029.23
2019-02-25T02:41:48.881Z,1029.23
2019-02-25T02:42:48.866Z,1029.25
2019-02-25T02:43:48.843Z,1029.23
2019-02-25T02:44:48.829Z,1029.25
2019-02-25T02:45:48.799Z,1029.26
2019-02-25T02:46:48.780Z,1029.26
2019-02-25T02:47:48.759Z,1029.25
2019-02-25T02:48:48.744Z,1029.24
2019-02-25T02:49:48.722Z,1029.22
2019-02-25T02:50:48.709Z,1029.26
2019-02-25T02:51:48.683Z,1029.23
2019-02-25T02:52:48.665Z,1029.25
2019-02-25T02:53:48.642Z,1029.21
2019-02-25T02:54:48.619Z,1029.23
2019-02-25T02:55:48.602Z,1029.21
2019-02-25T02:56:48.580Z,1029.22
2019-02-25T02:57:48.559Z,1029.21
2019-02-25T02:58:48.536Z,1029.24
2019-02-25T02:59:48.517Z,1029.22
2019-02-25T03:00:48.496Z,1029.19
2019-02-25T03:01:48.484Z,1029.18
2019-02-25T03:02:48.455Z,1029.16
2019-02-25T03:03:48.436Z,1029.14
2019-02-25T03:04:48.444Z,1029.11
2019-02-25T03:05:48.393Z,1029.14
2019-02-25T03:06:48.374Z,1029.1
2019-02-25T03:07:48.351Z,1029.14
2019-02-25T03:08:48.335Z,1029.1
2019-02-25T03:09:48.312Z,1029.1
2019-02-25T03:10:48.294Z,1029.09
2019-02-25T03:11:48.272Z,1029.12
2019-02-25T03:12:48.260Z,1029.1
2019-02-25T03:13:48.231Z,1029.12
2019-02-25T03:14:48.210Z,1029.12
2019-02-25T03:15:48.194Z,1029.15
2019-02-25T03:16:48.173Z,1029.2
2019-02-25T03:17:48.150Z,1029.19
2019-02-25T03:18:48.130Z,1029.17
2019-02-25T03:19:48.105Z,1029.17
2019-02-25T03:20:48.085Z,1029.21
2019-02-25T03:21:48.065Z,1029.23
2019-02-25T03:22:48.046Z,1029.19
2019-02-25T03:23:48.027Z,1029.23
2019-02-25T03:24:48.256Z,1029.24
2019-02-25T03:25:47.983Z,1029.2
2019-02-25T03:26:47.966Z,1029.25
2019-02-25T03:27:47.973Z,1029.19
2019-02-25T03:28:47.925Z,1029.24
2019-02-25T03:29:47.900Z,1029.21
2019-02-25T03:30:47.882Z,1029.21
2019-02-25T03:31:47.862Z,1029.24
2019-02-25T03:32:47.842Z,1029.2
2019-02-25T03:33:47.820Z,1029.19
2019-02-25T03:34:47.798Z,1029.16
2019-02-25T03:35:47.780Z,1029.13
2019-02-25T03:36:47.759Z,1029.1
2019-02-25T03:37:47.765Z,1029.14
2019-02-25T03:38:47.716Z,1029.1
2019-02-25T03:39:47.695Z,1029.1
2019-02-25T03:40:47.675Z,1029.16
2019-02-25T03:41:47.653Z,1029.19
2019-02-25T03:42:47.632Z,1029.2
2019-02-25T03:43:47.617Z,1029.21
2019-02-25T03:44:47.591Z,1029.24
2019-02-25T03:45:47.569Z,1029.23
2019-02-25T03:46:47.551Z,1029.26
2019-02-25T03:47:47.531Z,1029.28
2019-02-25T03:48:47.509Z,1029.27
2019-02-25T03:49:47.489Z,1029.3
2019-02-25T03:50:47.468Z,1029.32
2019-02-25T03:51:47.447Z,1029.31
2019-02-25T03:52:47.434Z,1029.31
2019-02-25T03:53:47.404Z,1029.31
2019-02-25T03:54:47.384Z,1029.3
2019-02-25T03:55:47.365Z,1029.32
2019-02-25T03:56:47.343Z,1029.29
2019-02-25T03:57:47.324Z,1029.24
2019-02-25T03:58:47.300Z,1029.24
2019-02-25T03:59:47.279Z,1029.22
2019-02-25T04:00:47.259Z,1029.23
2019-02-25T04:01:47.247Z,1029.24
2019-02-25T04:02:47.271Z,1029.26
2019-02-25T04:03:47.199Z,1029.27
2019-02-25T04:04:47.177Z,1029.24
2019-02-25T04:05:47.157Z,1029.26
2019-02-25T04:06:47.139Z,1029.24
2019-02-25T04:07:47.115Z,1029.17
2019-02-25T04:08:47.093Z,1029.2
2019-02-25T04:09:47.075Z,1029.12
2019-02-25T04:10:47.051Z,1029.17
2019-02-25T04:11:47.033Z,1029.2
2019-02-25T04:12:47.016Z,1029.21
2019-02-25T04:13:46.990Z,1029.18
2019-02-25T04:14:46.968Z,1029.18
2019-02-25T04:15:46.947Z,1029.21
2019-02-25T04:16:46.927Z,1029.23
2019-02-25T04:17:46.907Z,1029.21
2019-02-25T04:18:46.886Z,1029.24
2019-02-25T04:19:46.862Z,1029.23
2019-02-25T04:20:46.846Z,1029.3
2019-02-25T04:21:46.866Z,1029.26
2019-02-25T04:22:46.804Z,1029.27
2019-02-25T04:23:46.786Z,1029.26
2019-02-25T04:24:46.764Z,1029.23
2019-02-25T04:25:46.740Z,1029.23
2019-02-25T04:26:46.718Z,1029.19
2019-02-25T04:27:46.700Z,1029.19
2019-02-25T04:28:46.678Z,1029.21
2019-02-25T04:29:46.665Z,1029.19
2019-02-25T04:30:46.636Z,1029.16
2019-02-25T04:31:46.616Z,1029.15
2019-02-25T04:32:46.606Z,1029.17
2019-02-25T04:33:46.570Z,1029.2
2019-02-25T04:34:46.552Z,1029.23
2019-02-25T04:35:46.532Z,1029.22
2019-02-25T04:36:46.510Z,1029.23
2019-02-25T04:37:46.493Z,1029.21
2019-02-25T04:38:46.475Z,1029.23
2019-02-25T04:39:46.446Z,1029.23
2019-02-25T04:40:46.426Z,1029.18
2019-02-25T04:41:46.406Z,1029.17
2019-02-25T04:42:46.387Z,1029.17
2019-02-25T04:43:46.364Z,1029.17
2019-02-25T04:44:46.346Z,1029.19
2019-02-25T04:45:46.322Z,1029.19
2019-02-25T04:46:46.302Z,1029.2
2019-02-25T04:47:46.278Z,1029.19
2019-02-25T04:48:46.259Z,1029.15
2019-02-25T04:49:46.239Z,1029.17
2019-02-25T04:50:46.222Z,1029.16
2019-02-25T04:51:46.206Z,1029.18
2019-02-25T04:52:46.179Z,1029.16
2019-02-25T04:53:46.162Z,1029.19
2019-02-25T04:54:46.146Z,1029.17
2019-02-25T04:55:46.193Z,1029.19
2019-02-25T04:56:46.089Z,1029.18
2019-02-25T04:57:46.069Z,1029.17
2019-02-25T04:58:46.070Z,1029.14
2019-02-25T04:59:46.025Z,1029.13
2019-02-25T05:00:46.005Z,1029.13
2019-02-25T05:01:46.136Z,1029.14
2019-02-25T05:02:45.963Z,1029.14
2019-02-25T05:03:45.947Z,1029.12
2019-02-25T05:04:45.922Z,1029.13
2019-02-25T05:05:45.899Z,1029.15
2019-02-25T05:06:45.880Z,1029.15
2019-02-25T05:07:45.857Z,1029.17
2019-02-25T05:08:45.866Z,1029.16
2019-02-25T05:09:45.817Z,1029.13
2019-02-25T05:10:45.793Z,1029.13
2019-02-25T05:11:45.775Z,1029.14
2019-02-25T05:12:45.754Z,1029.16
2019-02-25T05:13:45.751Z,1029.15
2019-02-25T05:14:45.713Z,1029.18
2019-02-25T05:15:45.691Z,1029.2
2019-02-25T05:16:45.668Z,1029.2
2019-02-25T05:17:45.656Z,1029.19
2019-02-25T05:18:45.625Z,1029.19
2019-02-25T05:19:45.605Z,1029.17
2019-02-25T05:20:45.585Z,1029.16
2019-02-25T05:21:45.561Z,1029.19
2019-02-25T05:22:45.545Z,1029.19
2019-02-25T05:23:45.523Z,1029.18
2019-02-25T05:24:45.502Z,1029.18
2019-02-25T05:25:45.479Z,1029.22
2019-02-25T05:26:45.457Z,1029.2
2019-02-25T05:27:45.439Z,1029.18
2019-02-25T05:28:45.419Z,1029.19
2019-02-25T05:29:45.396Z,1029.25
2019-02-25T05:30:45.373Z,1029.19
2019-02-25T05:31:45.350Z,1029.22
2019-02-25T05:32:45.329Z,1029.2
2019-02-25T05:33:45.309Z,1029.18
2019-02-25T05:34:45.287Z,1029.24
2019-02-25T05:35:45.267Z,1029.22
2019-02-25T05:36:45.245Z,1029.23
2019-02-25T05:37:45.224Z,1029.24
2019-02-25T05:38:45.201Z,1029.22
2019-02-25T05:39:45.183Z,1029.23
2019-02-25T05:40:45.161Z,1029.21
2019-02-25T05:41:45.139Z,1029.21
2019-02-25T05:42:45.268Z,1029.26
2019-02-25T05:43:45.096Z,1029.28
2019-02-25T05:44:45.075Z,1029.31
2019-02-25T05:45:45.056Z,1029.3
2019-02-25T05:46:45.036Z,1029.29
2019-02-25T05:47:45.517Z,1029.29
2019-02-25T05:48:44.993Z,1029.32
2019-02-25T05:49:44.979Z,1029.35
2019-02-25T05:50:44.955Z,1029.32
2019-02-25T05:51:44.927Z,1029.37
2019-02-25T05:52:44.905Z,1029.36
2019-02-25T05:53:44.883Z,1029.36
2019-02-25T05:54:44.939Z,1029.41
2019-02-25T05:55:44.846Z,1029.4
2019-02-25T05:56:44.822Z,1029.49
2019-02-25T05:57:44.802Z,1029.46
2019-02-25T05:58:44.783Z,1029.5
2019-02-25T05:59:44.757Z,1029.48
2019-02-25T06:00:44.739Z,1029.51
2019-02-25T06:01:44.723Z,1029.49
2019-02-25T06:02:44.705Z,1029.46
2019-02-25T06:03:44.673Z,1029.46
2019-02-25T06:04:44.683Z,1029.4
2019-02-25T06:05:44.633Z,1029.38
2019-02-25T06:06:44.614Z,1029.36
2019-02-25T06:07:44.588Z,1029.43
2019-02-25T06:08:44.569Z,1029.42
2019-02-25T06:09:44.547Z,1029.39
2019-02-25T06:10:44.523Z,1029.42
2019-02-25T06:11:44.503Z,1029.4
2019-02-25T06:12:44.483Z,1029.41
2019-02-25T06:13:44.461Z,1029.42
2019-02-25T06:14:44.442Z,1029.41
2019-02-25T06:15:44.420Z,1029.41
2019-02-25T06:16:44.395Z,1029.44
2019-02-25T06:17:44.380Z,1029.4
2019-02-25T06:18:44.354Z,1029.4
2019-02-25T06:19:44.334Z,1029.41
2019-02-25T06:20:44.314Z,1029.4
2019-02-25T06:21:44.288Z,1029.42
2019-02-25T06:22:44.270Z,1029.45
2019-02-25T06:23:44.257Z,1029.45
2019-02-25T06:24:44.231Z,1029.45
2019-02-25T06:25:44.206Z,1029.44
2019-02-25T06:26:44.185Z,1029.45
2019-02-25T06:27:44.216Z,1029.45
2019-02-25T06:28:44.143Z,1029.44
2019-02-25T06:29:44.119Z,1029.41
2019-02-25T06:30:44.099Z,1029.38
2019-02-25T06:31:44.089Z,1029.41
2019-02-25T06:32:44.054Z,1029.41
2019-02-25T06:33:44.034Z,1029.38
2019-02-25T06:34:44.015Z,1029.37
2019-02-25T06:35:43.995Z,1029.39
2019-02-25T06:36:43.973Z,1029.43
2019-02-25T06:37:43.977Z,1029.39
2019-02-25T06:38:43.925Z,1029.36
2019-02-25T06:39:43.907Z,1029.37
2019-02-25T06:40:43.884Z,1029.36
2019-02-25T06:41:43.865Z,1029.39
2019-02-25T06:42:43.840Z,1029.38
2019-02-25T06:43:43.821Z,1029.42
2019-02-25T06:44:43.798Z,1029.42
2019-02-25T06:45:43.777Z,1029.45
2019-02-25T06:46:43.757Z,1029.46
2019-02-25T06:47:43.736Z,1029.44
2019-02-25T06:48:43.713Z,1029.45
2019-02-25T06:49:43.691Z,1029.41
2019-02-25T06:50:43.670Z,1029.48
2019-02-25T06:51:43.647Z,1029.51
2019-02-25T06:52:43.632Z,1029.53
2019-02-25T06:53:43.606Z,1029.56
2019-02-25T06:54:43.634Z,1029.57
2019-02-25T06:55:43.569Z,1029.63
2019-02-25T06:56:43.545Z,1029.59
2019-02-25T06:57:43.520Z,1029.57
2019-02-25T06:58:43.500Z,1029.55
2019-02-25T06:59:43.491Z,1029.54
2019-02-25T07:00:43.457Z,1029.56
2019-02-25T07:01:43.435Z,1029.54
2019-02-25T07:02:43.416Z,1029.56
2019-02-25T07:03:43.689Z,1029.54
2019-02-25T07:04:43.374Z,1029.56
2019-02-25T07:05:43.351Z,1029.54
2019-02-25T07:06:43.330Z,1029.57
2019-02-25T07:07:43.310Z,1029.57
2019-02-25T07:08:43.290Z,1029.55
2019-02-25T07:09:43.266Z,1029.56
2019-02-25T07:10:43.245Z,1029.6
2019-02-25T07:11:43.225Z,1029.57
2019-02-25T07:12:43.202Z,1029.57
2019-02-25T07:13:43.181Z,1029.59
2019-02-25T07:14:43.158Z,1029.6
2019-02-25T07:15:43.145Z,1029.6
2019-02-25T07:16:43.118Z,1029.65
2019-02-25T07:17:43.094Z,1029.63
2019-02-25T07:18:43.074Z,1029.71
2019-02-25T07:19:43.055Z,1029.69
2019-02-25T07:20:43.036Z,1029.66
2019-02-25T07:21:43.010Z,1029.67
2019-02-25T07:22:42.990Z,1029.66
2019-02-25T07:23:42.971Z,1029.64
2019-02-25T07:24:42.946Z,1029.68
2019-02-25T07:25:42.926Z,1029.71
2019-02-25T07:26:42.912Z,1029.67
2019-02-25T07:27:42.906Z,1029.7
2019-02-25T07:28:42.864Z,1029.69
2019-02-25T07:29:42.841Z,1029.72
2019-02-25T07:30:42.823Z,1029.66
2019-02-25T07:31:42.808Z,1029.67
2019-02-25T07:32:42.780Z,1029.64
2019-02-25T07:33:42.763Z,1029.63
2019-02-25T07:34:42.741Z,1029.66
2019-02-25T07:35:42.722Z,1029.63
2019-02-25T07:36:42.700Z,1029.61
2019-02-25T07:37:42.679Z,1029.63
2019-02-25T07:38:42.659Z,1029.61
2019-02-25T07:39:42.634Z,1029.64
2019-02-25T07:40:42.614Z,1029.68
2019-02-25T07:41:42.592Z,1029.67
2019-02-25T07:42:42.577Z,1029.67
2019-02-25T07:43:42.553Z,1029.69
2019-02-25T07:44:42.531Z,1029.65
2019-02-25T07:45:42.515Z,1029.7
2019-02-25T07:46:42.492Z,1029.74
2019-02-25T07:47:42.670Z,1029.75
2019-02-25T07:48:42.523Z,1029.75
2019-02-25T07:49:42.427Z,1029.79
2019-02-25T07:50:47.080Z,1029.78
2019-02-25T07:51:42.385Z,1029.77
2019-02-25T07:52:42.376Z,1029.79
2019-02-25T07:53:42.346Z,1029.79
2019-02-25T07:54:42.324Z,1029.74
2019-02-25T07:55:42.302Z,1029.79
2019-02-25T07:56:42.285Z,1029.77
2019-02-25T07:57:42.264Z,1029.82
2019-02-25T07:58:42.244Z,1029.82
2019-02-25T07:59:42.225Z,1029.78
2019-02-25T08:00:42.202Z,1029.82
2019-02-25T08:01:42.186Z,1029.83
2019-02-25T08:02:42.160Z,1029.83
2019-02-25T08:03:42.146Z,1029.87
2019-02-25T08:04:42.123Z,1029.9
2019-02-25T08:05:42.104Z,1029.94
2019-02-25T08:06:42.079Z,1029.91
2019-02-25T08:07:42.061Z,1029.98
2019-02-25T08:08:42.039Z,1029.97
2019-02-25T08:09:42.019Z,1030.03
2019-02-25T08:10:41.999Z,1030
2019-02-25T08:11:41.978Z,1030.01
2019-02-25T08:12:41.957Z,1030.07
2019-02-25T08:13:41.939Z,1030.1
2019-02-25T08:14:41.920Z,1030.11
2019-02-25T08:15:41.899Z,1030.12
2019-02-25T08:16:41.877Z,1030.16
2019-02-25T08:17:41.861Z,1030.14
2019-02-25T08:18:41.838Z,1030.19
2019-02-25T08:19:41.823Z,1030.16
2019-02-25T08:20:41.798Z,1030.12
2019-02-25T08:21:41.779Z,1030.15
2019-02-25T08:22:41.760Z,1030.13
2019-02-25T08:23:41.738Z,1030.14
2019-02-25T08:24:41.719Z,1030.15
2019-02-25T08:25:41.699Z,1030.21
2019-02-25T08:26:41.705Z,1030.25
2019-02-25T08:27:41.662Z,1030.26
2019-02-25T08:28:41.643Z,1030.33
2019-02-25T08:29:41.624Z,1030.3
2019-02-25T08:30:41.602Z,1030.26
2019-02-25T08:31:41.599Z,1030.31
2019-02-25T08:32:41.566Z,1030.39
2019-02-25T08:33:41.549Z,1030.41
2019-02-25T08:34:41.532Z,1030.39
2019-02-25T08:35:41.511Z,1030.38
2019-02-25T08:36:41.495Z,1030.38
2019-02-25T08:37:41.480Z,1030.39
2019-02-25T08:38:41.461Z,1030.41
2019-02-25T08:39:41.439Z,1030.46
2019-02-25T08:40:41.424Z,1030.52
2019-02-25T08:41:41.406Z,1030.58
2019-02-25T08:42:41.402Z,1030.55
2019-02-25T08:43:41.372Z,1030.6
2019-02-25T08:44:41.356Z,1030.62
2019-02-25T08:45:41.345Z,1030.64
2019-02-25T08:46:41.326Z,1030.6
2019-02-25T08:47:41.306Z,1030.63
2019-02-25T08:48:41.294Z,1030.66
2019-02-25T08:49:41.275Z,1030.69
2019-02-25T08:50:41.261Z,1030.7
2019-02-25T08:51:41.249Z,1030.69
2019-02-25T08:52:41.231Z,1030.69
2019-02-25T08:53:41.221Z,1030.7
2019-02-25T08:54:41.205Z,1030.7
2019-02-25T08:55:41.191Z,1030.71
2019-02-25T08:56:41.181Z,1030.7
2019-02-25T08:57:41.179Z,1030.68
2019-02-25T08:58:42.699Z,1030.74
2019-02-25T08:59:41.139Z,1030.81
2019-02-25T09:00:41.131Z,1030.82
2019-02-25T09:01:41.118Z,1030.83
2019-02-25T09:02:41.105Z,1030.85
2019-02-25T09:03:41.098Z,1030.81
2019-02-25T09:04:41.084Z,1030.77
2019-02-25T09:05:41.074Z,1030.75
2019-02-25T09:06:41.065Z,1030.76
2019-02-25T09:07:42.627Z,1030.79
2019-02-25T09:08:41.043Z,1030.88
2019-02-25T09:09:41.036Z,1030.89
2019-02-25T09:10:41.020Z,1030.84
2019-02-25T09:11:41.017Z,1030.86
2019-02-25T09:12:41.002Z,1030.92
2019-02-25T09:13:40.992Z,1030.87
2019-02-25T09:14:40.981Z,1030.85
2019-02-25T09:15:41.023Z,1030.81
2019-02-25T09:16:40.966Z,1030.81
2019-02-25T09:17:40.958Z,1030.84
2019-02-25T09:18:40.946Z,1030.84
2019-02-25T09:19:40.937Z,1030.87
2019-02-25T09:20:40.929Z,1030.88
2019-02-25T09:21:40.920Z,1030.9
2019-02-25T09:22:40.912Z,1030.87
2019-02-25T09:23:40.954Z,1030.87
2019-02-25T09:24:40.984Z,1030.79
2019-02-25T09:25:40.889Z,1030.76
2019-02-25T09:26:40.879Z,1030.82
2019-02-25T09:27:40.874Z,1030.88
2019-02-25T09:28:40.864Z,1030.95
2019-02-25T09:29:40.854Z,1030.97
2019-02-25T09:30:40.847Z,1031
2019-02-25T09:31:40.839Z,1031
2019-02-25T09:32:40.831Z,1030.97
2019-02-25T09:33:40.824Z,1030.97
2019-02-25T09:34:40.814Z,1030.95
2019-02-25T09:35:40.816Z,1030.96
2019-02-25T09:36:40.797Z,1030.84
2019-02-25T09:37:40.789Z,1030.82
2019-02-25T09:38:40.784Z,1030.76
2019-02-25T09:39:40.777Z,1030.77
2019-02-25T09:40:40.813Z,1030.81
2019-02-25T09:41:40.761Z,1030.8
2019-02-25T09:42:40.748Z,1030.9
2019-02-25T09:43:40.742Z,1030.88
2019-02-25T09:44:40.732Z,1030.82
2019-02-25T09:45:40.722Z,1030.85
2019-02-25T09:46:40.712Z,1030.89
2019-02-25T09:47:40.905Z,1030.92
2019-02-25T09:48:40.699Z,1030.93
2019-02-25T09:49:40.692Z,1030.9
2019-02-25T09:50:40.677Z,1030.91
2019-02-25T09:51:40.668Z,1030.91
2019-02-25T09:52:40.660Z,1030.97
2019-02-25T09:53:40.654Z,1030.95
2019-02-25T09:54:40.650Z,1030.96
2019-02-25T09:55:40.635Z,1030.92
2019-02-25T09:56:40.636Z,1030.96
2019-02-25T09:57:40.623Z,1030.96
2019-02-25T09:58:40.617Z,1030.94
2019-02-25T09:59:40.608Z,1030.91
2019-02-25T10:00:40.604Z,1030.86
2019-02-25T10:01:40.592Z,1030.86
2019-02-25T10:02:40.584Z,1030.84
2019-02-25T10:03:40.577Z,1030.86
2019-02-25T10:04:40.568Z,1030.87
2019-02-25T10:05:40.568Z,1030.86
2019-02-25T10:06:40.554Z,1030.84
2019-02-25T10:07:40.545Z,1030.8
2019-02-25T10:08:40.541Z,1030.78
2019-02-25T10:09:40.531Z,1030.75
2019-02-25T10:10:40.544Z,1030.78
2019-02-25T10:11:40.517Z,1030.77
2019-02-25T10:12:40.509Z,1030.79
2019-02-25T10:13:40.500Z,1030.78
2019-02-25T10:14:40.490Z,1030.79
2019-02-25T10:15:40.492Z,1030.79
2019-02-25T10:16:40.474Z,1030.82
2019-02-25T10:17:40.465Z,1030.84
2019-02-25T10:18:40.460Z,1030.86
2019-02-25T10:19:40.450Z,1030.86
2019-02-25T10:20:40.442Z,1030.84
2019-02-25T10:21:40.439Z,1030.87
2019-02-25T10:22:40.447Z,1030.86
2019-02-25T10:23:40.576Z,1030.84
2019-02-25T10:24:40.416Z,1030.86
2019-02-25T10:25:40.407Z,1030.84
2019-02-25T10:26:40.396Z,1030.82
2019-02-25T10:27:40.387Z,1030.79
2019-02-25T10:28:40.382Z,1030.78
2019-02-25T10:29:40.373Z,1030.82
2019-02-25T10:30:40.366Z,1030.85
2019-02-25T10:31:41.613Z,1030.85
2019-02-25T10:32:40.369Z,1030.85
2019-02-25T10:33:40.344Z,1030.87
2019-02-25T10:34:40.335Z,1030.81
2019-02-25T10:35:40.327Z,1030.75
2019-02-25T10:36:40.321Z,1030.73
2019-02-25T10:37:41.355Z,1030.7
2019-02-25T10:38:40.305Z,1030.73
2019-02-25T10:39:41.197Z,1030.73
2019-02-25T10:40:40.289Z,1030.72
2019-02-25T10:41:40.280Z,1030.68
2019-02-25T10:42:40.274Z,1030.72
2019-02-25T10:43:40.268Z,1030.72
2019-02-25T10:44:40.324Z,1030.71
2019-02-25T10:45:41.144Z,1030.7
2019-02-25T10:46:41.110Z,1030.73
2019-02-25T10:47:41.681Z,1030.71
2019-02-25T10:48:40.224Z,1030.63
2019-02-25T10:49:40.216Z,1030.63
2019-02-25T10:50:40.901Z,1030.67
2019-02-25T10:51:41.083Z,1030.61
2019-02-25T10:52:41.148Z,1030.63
2019-02-25T10:53:40.188Z,1030.66
2019-02-25T10:54:40.180Z,1030.66
2019-02-25T10:55:44.266Z,1030.64
2019-02-25T10:56:40.217Z,1030.66
2019-02-25T10:57:40.160Z,1030.64
2019-02-25T10:58:40.152Z,1030.64
2019-02-25T10:59:41.468Z,1030.69
2019-02-25T11:00:41.640Z,1030.81
2019-02-25T11:01:41.353Z,1030.92
2019-02-25T11:02:44.122Z,1030.96
2019-02-25T11:03:40.118Z,1030.95
2019-02-25T11:04:40.109Z,1030.9
2019-02-25T11:05:40.106Z,1030.94
2019-02-25T11:06:40.099Z,1030.96
2019-02-25T11:07:41.873Z,1031.04
2019-02-25T11:08:41.476Z,1031.05
2019-02-25T11:09:41.835Z,1030.94
2019-02-25T11:10:40.076Z,1030.9
2019-02-25T11:11:40.067Z,1031.13
2019-02-25T11:12:40.529Z,1031.07
2019-02-25T11:13:40.058Z,1030.87
2019-02-25T11:14:40.995Z,1030.74
2019-02-25T11:15:41.725Z,1030.81
2019-02-25T11:16:41.780Z,1030.78
2019-02-25T11:17:40.038Z,1030.65
2019-02-25T11:18:40.585Z,1030.64
2019-02-25T11:19:40.026Z,1030.58
2019-02-25T11:20:40.024Z,1030.57
2019-02-25T11:21:42.041Z,1030.57
2019-02-25T11:22:41.908Z,1030.51
2019-02-25T11:23:40.010Z,1030.56
2019-02-25T11:24:40.003Z,1030.55
2019-02-25T11:25:39.998Z,1030.55
2019-02-25T11:26:40.003Z,1030.55
2019-02-25T11:27:40.111Z,1030.47
2019-02-25T11:28:41.156Z,1030.46
2019-02-25T11:29:41.742Z,1030.47
2019-02-25T11:30:39.976Z,1030.48
2019-02-25T11:31:39.973Z,1030.43
2019-02-25T11:32:39.994Z,1030.44
2019-02-25T11:33:39.971Z,1030.46
2019-02-25T11:34:40.000Z,1030.47
2019-02-25T11:35:41.085Z,1030.47
2019-02-25T11:36:39.948Z,1030.46
2019-02-25T11:37:39.945Z,1030.47
2019-02-25T11:38:39.950Z,1030.48
2019-02-25T11:39:39.940Z,1030.44
2019-02-25T11:40:39.934Z,1030.39
2019-02-25T11:41:41.062Z,1030.33
2019-02-25T11:42:39.928Z,1030.26
2019-02-25T11:43:39.927Z,1030.24
2019-02-25T11:44:39.920Z,1030.23
2019-02-25T11:45:39.919Z,1030.21
2019-02-25T11:46:39.917Z,1030.13
2019-02-25T11:47:40.112Z,1030.16
2019-02-25T11:48:39.910Z,1030.17
2019-02-25T11:49:39.905Z,1030.14
2019-02-25T11:50:39.904Z,1030.14
2019-02-25T11:51:39.955Z,1030.16
2019-02-25T11:52:39.947Z,1030.1
2019-02-25T11:53:39.897Z,1030.07
2019-02-25T11:54:39.895Z,1030.07
2019-02-25T11:55:39.890Z,1030
2019-02-25T11:56:39.890Z,1030.01
2019-02-25T11:57:39.888Z,1029.97
2019-02-25T11:58:39.885Z,1029.99
2019-02-25T11:59:39.883Z,1029.96
2019-02-25T12:00:39.977Z,1029.95
2019-02-25T12:01:39.881Z,1029.96
2019-02-25T12:02:39.882Z,1029.98
2019-02-25T12:03:39.878Z,1029.95
2019-02-25T12:04:39.924Z,1029.96
2019-02-25T12:05:39.878Z,1029.94
2019-02-25T12:06:39.874Z,1029.95
2019-02-25T12:07:39.873Z,1029.92
2019-02-25T12:08:39.874Z,1029.86